createdAt,value
2018-12-19T00:01:54.439Z,22.50
2018-12-19T00:04:59.699Z,20.10
2018-12-19T00:08:04.934Z,23.47
2018-12-19T00:11:08.134Z,21.87
2018-12-19T00:14:11.534Z,24.30
2018-12-19T00:17:15.787Z,23.60
2018-12-19T00:20:20.295Z,24.03
2018-12-19T00:23:23.468Z,24.57
2018-12-19T00:26:26.663Z,25.83
2018-12-19T00:29:31.927Z,24.50
2018-12-19T00:32:37.361Z,25.83
2018-12-19T00:35:42.602Z,26.73
2018-12-19T00:38:45.790Z,26.27
2018-12-19T00:41:48.983Z,27.20
2018-12-19T00:44:52.185Z,25.53
2018-12-19T00:47:55.370Z,24.63
2018-12-19T00:50:58.570Z,24.70
2018-12-19T00:54:01.869Z,23.53
2018-12-19T00:57:05.066Z,24.30
2018-12-19T01:00:08.706Z,25.77
2018-12-19T01:03:11.963Z,24.80
2018-12-19T01:06:15.287Z,24.43
2018-12-19T01:09:18.454Z,25.93
2018-12-19T01:12:21.646Z,24.97
2018-12-19T01:15:25.051Z,26.90
2018-12-19T01:18:28.348Z,24.13
2018-12-19T01:21:31.543Z,24.63
2018-12-19T01:24:34.742Z,23.00
2018-12-19T01:27:38.559Z,24.57
2018-12-19T01:30:42.159Z,26.50
2018-12-19T01:33:45.350Z,24.53
2018-12-19T01:36:48.547Z,25.00
2018-12-19T01:39:51.749Z,24.73
2018-12-19T01:42:55.719Z,21.70
2018-12-19T01:45:58.950Z,23.70
2018-12-19T01:49:02.143Z,25.53
2018-12-19T01:52:05.343Z,24.50
2018-12-19T01:55:08.527Z,25.80
2018-12-19T01:58:11.773Z,25.23
2018-12-19T02:01:15.016Z,26.33
2018-12-19T02:04:18.210Z,26.23
2018-12-19T02:07:21.403Z,26.27
2018-12-19T02:10:24.608Z,27.57
2018-12-19T02:13:27.796Z,24.87
2018-12-19T02:16:30.990Z,24.77
2018-12-19T02:19:34.187Z,24.27
2018-12-19T02:22:37.385Z,26.50
2018-12-19T02:25:40.578Z,26.13
2018-12-19T02:28:43.769Z,26.40
2018-12-19T02:31:47.113Z,25.97
2018-12-19T02:34:50.367Z,24.43
2018-12-19T02:37:53.602Z,23.60
2018-12-19T02:40:56.859Z,24.90
2018-12-19T02:44:00.305Z,25.77
2018-12-19T02:47:03.551Z,24.93
2018-12-19T02:50:06.779Z,24.87
2018-12-19T02:53:09.939Z,27.17
2018-12-19T02:56:13.220Z,27.20
2018-12-19T02:59:16.435Z,27.43
2018-12-19T03:02:19.655Z,28.73
2018-12-19T03:05:22.827Z,27.67
2018-12-19T03:08:26.054Z,26.70
2018-12-19T03:11:29.214Z,27.10
2018-12-19T03:14:32.435Z,25.27
2018-12-19T03:17:35.700Z,26.80
2018-12-19T03:20:38.934Z,28.50
2018-12-19T03:23:42.197Z,29.50
2018-12-19T03:26:45.519Z,26.83
2018-12-19T03:29:48.788Z,26.20
2018-12-19T03:32:52.027Z,23.03
2018-12-19T03:35:55.183Z,23.40
2018-12-19T03:38:58.437Z,23.60
2018-12-19T03:42:01.676Z,23.20
2018-12-19T03:45:05.818Z,24.23
2018-12-19T03:48:13.426Z,24.17
2018-12-19T03:51:17.320Z,25.13
2018-12-19T03:54:21.048Z,26.33
2018-12-19T03:57:25.417Z,26.67
2018-12-19T04:00:28.830Z,30.67
2018-12-19T04:03:33.106Z,26.53
2018-12-19T04:06:36.329Z,27.37
2018-12-19T04:09:39.485Z,28.30
2018-12-19T04:12:43.185Z,30.23
2018-12-19T04:15:46.301Z,28.87
2018-12-19T04:18:49.726Z,29.57
2018-12-19T04:21:52.999Z,27.60
2018-12-19T04:24:57.599Z,30.03
2018-12-19T04:28:01.683Z,31.30
2018-12-19T04:31:04.971Z,30.57
2018-12-19T04:34:09.152Z,35.00
2018-12-19T04:37:12.422Z,36.07
2018-12-19T04:40:15.650Z,37.33
2018-12-19T04:43:18.973Z,38.13
2018-12-19T04:46:22.302Z,37.83
2018-12-19T04:49:26.534Z,37.57
2018-12-19T04:52:29.692Z,40.40
2018-12-19T04:55:32.883Z,37.83
2018-12-19T04:58:36.045Z,37.70
2018-12-19T05:01:39.289Z,38.03
2018-12-19T05:04:42.442Z,39.00
2018-12-19T05:07:45.813Z,38.43
2018-12-19T05:10:49.040Z,40.73
2018-12-19T05:13:52.582Z,37.03
2018-12-19T05:16:55.730Z,37.07
2018-12-19T05:19:59.306Z,37.87
2018-12-19T05:23:03.150Z,36.10
2018-12-19T05:26:06.533Z,35.70
2018-12-19T05:29:09.738Z,39.57
2018-12-19T05:32:12.965Z,38.73
2018-12-19T05:35:16.110Z,35.83
2018-12-19T05:38:19.454Z,38.37
2018-12-19T05:41:22.621Z,38.33
2018-12-19T05:44:25.817Z,37.50
2018-12-19T05:47:29.357Z,35.20
2018-12-19T05:50:32.657Z,37.20
2018-12-19T05:53:35.813Z,39.93
2018-12-19T05:56:39.005Z,38.73
2018-12-19T05:59:42.559Z,39.10
2018-12-19T06:02:45.709Z,39.10
2018-12-19T06:05:49.050Z,36.43
2018-12-19T06:08:52.337Z,36.63
2018-12-19T06:11:55.498Z,36.57
2018-12-19T06:14:58.686Z,36.13
2018-12-19T06:18:01.885Z,36.90
2018-12-19T06:21:05.081Z,36.77
2018-12-19T06:24:08.269Z,37.20
2018-12-19T06:27:12.186Z,35.37
2018-12-19T06:30:18.086Z,34.67
2018-12-19T06:33:21.251Z,33.87
2018-12-19T06:36:24.458Z,32.53
2018-12-19T06:39:27.777Z,33.80
2018-12-19T06:42:30.902Z,32.27
2018-12-19T06:45:34.121Z,32.93
2018-12-19T06:48:37.315Z,33.03
2018-12-19T06:51:40.509Z,31.00
2018-12-19T06:54:43.806Z,32.13
2018-12-19T06:57:47.005Z,33.13
2018-12-19T07:00:50.197Z,32.73
2018-12-19T07:03:53.394Z,32.40
2018-12-19T07:06:56.586Z,31.67
2018-12-19T07:09:59.782Z,31.83
2018-12-19T07:13:02.977Z,32.17
2018-12-19T07:16:06.169Z,31.07
2018-12-19T07:19:09.470Z,32.97
2018-12-19T07:22:12.665Z,32.23
2018-12-19T07:25:15.862Z,35.43
2018-12-19T07:28:19.765Z,33.07
2018-12-19T07:31:22.992Z,32.10
2018-12-19T07:34:26.168Z,31.53
2018-12-19T07:37:29.366Z,32.70
2018-12-19T07:40:32.554Z,32.43
2018-12-19T07:43:35.750Z,31.17
2018-12-19T07:46:38.945Z,30.70
2018-12-19T07:49:42.150Z,31.93
2018-12-19T07:52:45.486Z,34.60
2018-12-19T07:55:49.125Z,34.73
2018-12-19T07:58:52.441Z,32.67
2018-12-19T08:01:55.782Z,31.77
2018-12-19T08:04:58.957Z,32.43
2018-12-19T08:08:02.158Z,34.37
2018-12-19T08:11:05.326Z,32.67
2018-12-19T08:14:08.555Z,32.80
2018-12-19T08:17:11.698Z,30.80
2018-12-19T08:20:14.918Z,38.23
2018-12-19T08:23:18.101Z,34.67
2018-12-19T08:26:21.553Z,31.17
2018-12-19T08:29:24.698Z,32.53
2018-12-19T08:32:28.025Z,31.00
2018-12-19T08:35:31.194Z,31.40
2018-12-19T08:38:34.532Z,32.10
2018-12-19T08:41:39.370Z,31.60
2018-12-19T08:44:42.557Z,31.87
2018-12-19T08:47:45.725Z,30.47
2018-12-19T08:50:48.945Z,30.97
2018-12-19T08:53:52.087Z,30.43
2018-12-19T08:56:55.350Z,29.10
2018-12-19T08:59:58.497Z,29.50
2018-12-19T09:03:01.724Z,30.00
2018-12-19T09:06:04.885Z,30.60
2018-12-19T09:09:08.117Z,31.30
2018-12-19T09:12:11.280Z,29.27
2018-12-19T09:15:19.937Z,29.40
2018-12-19T09:18:23.294Z,30.93
2018-12-19T09:21:26.527Z,29.67
2018-12-19T09:24:29.691Z,29.47
2018-12-19T09:27:32.919Z,31.00
2018-12-19T09:30:36.282Z,29.63
2018-12-19T09:33:39.518Z,30.03
2018-12-19T09:36:42.693Z,27.40
2018-12-19T09:39:46.026Z,28.63
2018-12-19T09:42:49.167Z,27.47
2018-12-19T09:45:52.397Z,28.13
2018-12-19T09:48:55.591Z,27.47
2018-12-19T09:51:58.782Z,26.80
2018-12-19T09:55:01.942Z,26.57
2018-12-19T09:58:05.244Z,27.77
2018-12-19T10:01:08.967Z,24.77
2018-12-19T10:04:12.179Z,25.43
2018-12-19T10:07:15.584Z,26.97
2018-12-19T10:10:18.795Z,27.83
2018-12-19T10:13:23.043Z,26.10
2018-12-19T10:16:26.207Z,26.33
2018-12-19T10:19:29.436Z,27.53
2018-12-19T10:22:33.008Z,29.50
2018-12-19T10:25:36.239Z,25.13
2018-12-19T10:28:40.842Z,26.43
2018-12-19T10:31:44.263Z,24.67
2018-12-19T10:34:48.111Z,24.80
2018-12-19T10:37:51.952Z,22.37
2018-12-19T10:40:55.139Z,23.90
2018-12-19T10:43:58.722Z,21.73
2018-12-19T10:47:01.940Z,23.63
2018-12-19T10:50:08.338Z,22.90
2018-12-19T10:53:11.615Z,21.50
2018-12-19T10:56:14.923Z,20.37
2018-12-19T10:59:18.222Z,20.43
2018-12-19T11:02:23.638Z,18.67
2018-12-19T11:05:27.734Z,19.93
2018-12-19T11:08:31.103Z,18.97
2018-12-19T11:11:34.360Z,18.80
2018-12-19T11:14:37.591Z,18.20
2018-12-19T11:17:40.747Z,19.73
2018-12-19T11:20:44.136Z,17.90
2018-12-19T11:23:47.468Z,18.50
2018-12-19T11:26:51.155Z,19.37
2018-12-19T11:29:54.344Z,18.37
2018-12-19T11:32:58.379Z,18.13
2018-12-19T11:36:01.558Z,16.83
2018-12-19T11:39:07.170Z,15.67
2018-12-19T11:42:11.439Z,17.23
2018-12-19T11:45:14.754Z,16.47
2018-12-19T11:48:18.841Z,18.37
2018-12-19T11:51:22.031Z,18.80
2018-12-19T11:54:25.226Z,17.63
2018-12-19T11:57:28.577Z,17.27
2018-12-19T12:00:31.926Z,15.97
2018-12-19T12:03:35.283Z,16.40
2018-12-19T12:06:40.968Z,16.73
2018-12-19T12:09:44.303Z,17.53
2018-12-19T12:12:48.009Z,16.97
2018-12-19T12:15:51.384Z,16.63
2018-12-19T12:18:54.683Z,16.23
2018-12-19T12:21:58.104Z,15.77
2018-12-19T12:25:01.949Z,16.77
2018-12-19T12:28:05.192Z,15.53
2018-12-19T12:31:08.384Z,18.03
2018-12-19T12:34:12.191Z,17.43
2018-12-19T12:37:15.900Z,17.83
2018-12-19T12:40:19.308Z,17.27
2018-12-19T12:43:22.612Z,17.23
2018-12-19T12:46:25.888Z,16.50
2018-12-19T12:49:29.206Z,16.47
2018-12-19T12:52:32.387Z,16.83
2018-12-19T12:55:35.683Z,14.90
2018-12-19T12:58:38.867Z,15.73
2018-12-19T13:01:42.067Z,15.93
2018-12-19T13:04:45.275Z,16.63
2018-12-19T13:07:48.459Z,17.50
2018-12-19T13:10:53.063Z,16.73
2018-12-19T13:13:57.295Z,17.03
2018-12-19T13:17:00.498Z,16.47
2018-12-19T13:20:05.019Z,16.10
2018-12-19T13:23:08.221Z,15.33
2018-12-19T13:26:11.427Z,15.73
2018-12-19T13:29:14.613Z,17.07
2018-12-19T13:32:18.258Z,16.57
2018-12-19T13:35:21.505Z,16.43
2018-12-19T13:38:25.208Z,16.93
2018-12-19T13:41:28.406Z,15.40
2018-12-19T13:44:31.602Z,16.50
2018-12-19T13:47:34.894Z,17.17
2018-12-19T13:50:38.090Z,16.80
2018-12-19T13:53:41.289Z,17.03
2018-12-19T13:56:44.480Z,18.87
2018-12-19T13:59:47.656Z,17.13
2018-12-19T14:02:50.871Z,17.70
2018-12-19T14:05:54.066Z,17.87
2018-12-19T14:08:57.266Z,18.50
2018-12-19T14:12:00.455Z,16.77
2018-12-19T14:15:03.992Z,17.53
2018-12-19T14:18:07.153Z,18.60
2018-12-19T14:21:10.355Z,16.53
2018-12-19T14:24:13.543Z,16.07
2018-12-19T14:27:16.734Z,15.50
2018-12-19T14:30:19.932Z,16.17
2018-12-19T14:33:23.144Z,17.27
2018-12-19T14:36:26.348Z,16.57
2018-12-19T14:39:29.723Z,16.00
2018-12-19T14:42:33.462Z,15.80
2018-12-19T14:45:36.739Z,16.87
2018-12-19T14:48:40.249Z,16.33
2018-12-19T14:51:44.539Z,16.30
2018-12-19T14:54:47.872Z,17.03
2018-12-19T14:57:51.039Z,21.87
2018-12-19T15:00:54.278Z,19.47
2018-12-19T15:03:57.304Z,22.03
2018-12-19T15:07:00.443Z,22.77
2018-12-19T15:10:05.196Z,20.60
2018-12-19T15:13:08.731Z,23.47
2018-12-19T15:16:11.960Z,27.90
2018-12-19T15:19:15.548Z,34.30
2018-12-19T15:22:18.865Z,29.63
2018-12-19T15:25:22.194Z,29.53
2018-12-19T15:28:25.448Z,22.20
2018-12-19T15:31:28.671Z,23.07
2018-12-19T15:34:31.841Z,25.17
2018-12-19T15:37:35.180Z,22.97
2018-12-19T15:40:38.327Z,24.53
2018-12-19T15:43:41.615Z,22.20
2018-12-19T15:46:44.823Z,41.63
2018-12-19T15:49:48.458Z,23.63
2018-12-19T15:52:51.700Z,35.90
2018-12-19T15:55:55.332Z,23.77
2018-12-19T15:58:58.549Z,22.97
2018-12-19T16:02:02.480Z,24.00
2018-12-19T16:05:05.763Z,21.40
2018-12-19T16:08:08.985Z,25.60
2018-12-19T16:11:12.153Z,25.70
2018-12-19T16:14:15.378Z,25.43
2018-12-19T16:17:18.522Z,23.97
2018-12-19T16:20:21.750Z,26.00
2018-12-19T16:23:25.953Z,22.90
2018-12-19T16:26:29.186Z,21.87
2018-12-19T16:29:32.346Z,25.07
2018-12-19T16:32:35.570Z,19.57
2018-12-19T16:35:38.734Z,20.07
2018-12-19T16:38:41.966Z,21.90
2018-12-19T16:41:45.126Z,20.53
2018-12-19T16:44:48.355Z,21.97
2018-12-19T16:47:51.517Z,20.90
2018-12-19T16:50:54.747Z,20.03
2018-12-19T16:53:57.909Z,20.87
2018-12-19T16:57:01.134Z,21.23
2018-12-19T17:00:05.404Z,20.57
2018-12-19T17:03:08.971Z,20.03
2018-12-19T17:06:12.121Z,20.83
2018-12-19T17:09:16.170Z,20.13
2018-12-19T17:12:19.365Z,19.57
2018-12-19T17:15:22.599Z,20.07
2018-12-19T17:18:25.726Z,20.20
2018-12-19T17:21:28.931Z,20.13
2018-12-19T17:24:37.622Z,18.73
2018-12-19T17:27:40.882Z,19.50
2018-12-19T17:30:44.029Z,19.20
2018-12-19T17:33:47.253Z,18.90
2018-12-19T17:36:50.421Z,19.93
2018-12-19T17:39:53.659Z,20.30
2018-12-19T17:42:59.535Z,19.53
2018-12-19T17:46:02.189Z,20.83
2018-12-19T17:49:05.349Z,20.00
2018-12-19T17:52:08.589Z,18.87
2018-12-19T17:55:11.742Z,18.43
2018-12-19T17:58:14.964Z,18.57
2018-12-19T18:01:18.281Z,17.67
2018-12-19T18:04:21.554Z,18.50
2018-12-19T18:07:24.726Z,17.70
2018-12-19T18:10:27.954Z,18.90
2018-12-19T18:13:31.117Z,18.67
2018-12-19T18:16:34.346Z,19.57
2018-12-19T18:19:37.505Z,18.97
2018-12-19T18:22:40.734Z,18.33
2018-12-19T18:25:43.899Z,18.20
2018-12-19T18:28:47.241Z,19.67
2018-12-19T18:31:50.390Z,26.30
2018-12-19T18:34:53.629Z,18.37
2018-12-19T18:37:56.827Z,17.43
2018-12-19T18:41:00.429Z,19.83
2018-12-19T18:44:03.582Z,17.97
2018-12-19T18:47:06.818Z,17.50
2018-12-19T18:50:09.949Z,18.60
2018-12-19T18:53:13.307Z,19.13
2018-12-19T18:56:16.566Z,17.93
2018-12-19T18:59:19.761Z,17.33
2018-12-19T19:02:23.005Z,17.43
2018-12-19T19:05:26.271Z,18.97
2018-12-19T19:08:30.477Z,18.30
2018-12-19T19:11:33.666Z,17.97
2018-12-19T19:14:37.017Z,18.50
2018-12-19T19:17:40.162Z,18.67
2018-12-19T19:20:43.364Z,17.70
2018-12-19T19:23:46.552Z,18.70
2018-12-19T19:26:49.769Z,20.07
2018-12-19T19:29:52.940Z,19.07
2018-12-19T19:32:56.138Z,17.43
2018-12-19T19:35:59.333Z,18.73
2018-12-19T19:39:02.615Z,17.93
2018-12-19T19:42:07.149Z,18.50
2018-12-19T19:45:10.354Z,18.40
2018-12-19T19:48:14.058Z,16.60
2018-12-19T19:51:17.330Z,18.47
2018-12-19T19:54:20.858Z,18.77
2018-12-19T19:57:24.054Z,18.00
2018-12-19T20:00:31.453Z,18.67
2018-12-19T20:03:34.746Z,17.60
2018-12-19T20:06:38.607Z,18.00
2018-12-19T20:09:41.749Z,19.63
2018-12-19T20:12:44.942Z,18.27
2018-12-19T20:15:48.241Z,17.63
2018-12-19T20:18:51.417Z,19.60
2018-12-19T20:21:54.630Z,20.87
2018-12-19T20:24:57.826Z,17.83
2018-12-19T20:28:02.050Z,18.10
2018-12-19T20:31:05.243Z,18.43
2018-12-19T20:34:08.477Z,19.53
2018-12-19T20:37:11.629Z,19.13
2018-12-19T20:40:14.825Z,18.60
2018-12-19T20:43:18.021Z,17.67
2018-12-19T20:46:21.230Z,19.10
2018-12-19T20:49:24.412Z,18.97
2018-12-19T20:52:27.605Z,18.67
2018-12-19T20:55:30.873Z,17.33
2018-12-19T20:58:34.925Z,17.80
2018-12-19T21:01:38.129Z,18.93
2018-12-19T21:04:41.305Z,19.87
2018-12-19T21:07:44.511Z,19.60
2018-12-19T21:10:47.697Z,19.53
2018-12-19T21:13:50.902Z,20.37
2018-12-19T21:16:59.574Z,19.77
2018-12-19T21:20:03.227Z,19.10
2018-12-19T21:23:06.469Z,18.23
2018-12-19T21:26:09.613Z,17.70
2018-12-19T21:29:12.811Z,18.23
2018-12-19T21:32:16.005Z,18.20
2018-12-19T21:35:19.210Z,17.20
2018-12-19T21:38:22.397Z,17.87
2018-12-19T21:41:25.590Z,18.63
2018-12-19T21:44:28.761Z,18.30
2018-12-19T21:47:31.917Z,18.17
2018-12-19T21:50:35.160Z,17.37
2018-12-19T21:53:38.370Z,18.63
2018-12-19T21:56:42.045Z,18.10
2018-12-19T21:59:45.069Z,19.27
2018-12-19T22:02:48.237Z,19.23
2018-12-19T22:05:51.490Z,19.40
2018-12-19T22:08:54.621Z,19.03
2018-12-19T22:11:57.850Z,18.70
2018-12-19T22:15:01.071Z,18.63
2018-12-19T22:18:09.754Z,20.70
2018-12-19T22:21:12.979Z,18.33
2018-12-19T22:24:16.366Z,18.90
2018-12-19T22:27:20.159Z,18.77
2018-12-19T22:30:23.473Z,18.73
2018-12-19T22:33:27.234Z,18.70
2018-12-19T22:36:30.520Z,18.93
2018-12-19T22:39:33.918Z,19.00
2018-12-19T22:42:37.238Z,19.10
2018-12-19T22:45:40.550Z,18.43
2018-12-19T22:48:43.798Z,18.27
2018-12-19T22:51:47.043Z,18.90
2018-12-19T22:54:50.392Z,19.27
2018-12-19T22:57:53.725Z,19.93
2018-12-19T23:01:02.781Z,19.67
2018-12-19T23:04:07.444Z,18.83
2018-12-19T23:07:10.803Z,18.33
2018-12-19T23:10:14.000Z,19.13
2018-12-19T23:13:17.403Z,19.63
2018-12-19T23:16:22.736Z,19.07
2018-12-19T23:19:32.094Z,19.40
2018-12-19T23:22:42.197Z,20.03
2018-12-19T23:25:51.609Z,18.60
2018-12-19T23:29:02.799Z,19.23
2018-12-19T23:32:09.513Z,18.90
2018-12-19T23:35:12.838Z,19.03
2018-12-19T23:38:16.166Z,19.50
2018-12-19T23:41:19.415Z,20.50
2018-12-19T23:44:28.134Z,21.27
2018-12-19T23:47:31.341Z,21.73
2018-12-19T23:50:34.611Z,20.17
2018-12-19T23:53:37.938Z,19.77
2018-12-19T23:56:41.322Z,20.83
2018-12-19T23:59:44.542Z,19.90
